»·PEaware :: SWA5954 KOAK-KRNO

SWA5954 :: KOAK-KRNO

FLIGHT INFORMATION

Flight Status: Arrived
Operator:
Southwest Airlines
More flights by this operator :: More flights under this callsign
Pilot: Joshua M. (19482)
Aircraft: BOEING 737-800
(B738)
More flights by this aircraft type
Origin: KOAK Metro Oakland Intl
United States
Destination: KRNO Reno/Tahoe Intl
United States
More flights between these airports :: More routes between these airports
Route: +OAK3 OAK SAC SIER3
File this flight plan on PilotEdge
Remarks: Outdated FMC Default XPlane
Altitude:
(Current/Filed)
19,000ft
Speed:
(Current/Filed)
450kts
Departed: 14-Sep-18 11:53 AM
Arrived: 14-Sep-18 12:39 PM
Distance/Time
Traveled:
157nm/0:46
Distance/Time
To Go:
Arrived

Flight Plot

Page will automatically refresh every two minutes.

Flight plan parsing failed; only flown route is shown


Map Options




Map Legend


Flown Route
Filed Route
Departure Airport
Arrival Airport
Navaid (VOR, NDB)
Fix

Horizontal Profiles

Position Reports

Time Latitude Longitude Heading Altitude Ground
Speed
14-Sep-18 11:27 37.711578 -122.214485 305 16ft 0kts
14-Sep-18 11:28 37.711578 -122.214485 305 16ft 0kts
14-Sep-18 11:29 37.711578 -122.214485 305 16ft 0kts
14-Sep-18 11:30 37.711578 -122.214485 305 16ft 0kts
14-Sep-18 11:31 37.711578 -122.214485 305 16ft 0kts
14-Sep-18 11:32 37.711578 -122.214485 305 16ft 0kts
14-Sep-18 11:33 37.711578 -122.214485 305 16ft 0kts
14-Sep-18 11:34 37.711578 -122.214485 305 16ft 0kts
14-Sep-18 11:35 37.711578 -122.214485 305 16ft 0kts
14-Sep-18 11:36 37.711578 -122.214485 305 16ft 0kts
14-Sep-18 11:37 37.711578 -122.214485 305 16ft 0kts
14-Sep-18 11:38 37.711578 -122.214485 305 16ft 0kts
14-Sep-18 11:39 37.711578 -122.214485 305 16ft 0kts
14-Sep-18 11:40 37.711443 -122.214317 317 16ft 2kts
14-Sep-18 11:41 37.711116 -122.213905 314 16ft 2kts
14-Sep-18 11:42 37.711024 -122.213784 306 15ft 0kts
14-Sep-18 11:43 37.711024 -122.213784 306 15ft 0kts
14-Sep-18 11:44 37.711024 -122.213784 306 15ft 0kts
14-Sep-18 11:45 37.711024 -122.213784 306 15ft 0kts
14-Sep-18 11:46 37.710921 -122.214582 230 15ft 4kts
14-Sep-18 11:47 37.710035 -122.215483 221 16ft 5kts
14-Sep-18 11:48 37.709684 -122.215913 241 15ft 0kts
14-Sep-18 11:49 37.709674 -122.215936 241 15ft 1kts
14-Sep-18 11:50 37.708916 -122.215881 181 15ft 5kts
14-Sep-18 11:51 37.705906 -122.217083 129 15ft 12kts
14-Sep-18 11:52 37.702806 -122.213612 167 15ft 3kts
14-Sep-18 11:53 37.702786 -122.213607 168 15ft 0kts
14-Sep-18 11:54 37.702483 -122.213592 188 16ft 9kts
14-Sep-18 11:55 37.705196 -122.219993 309 16ft 87kts
14-Sep-18 11:56 37.727082 -122.253155 307 371ft 209kts
14-Sep-18 11:57 37.757151 -122.300011 309 1970ft 213kts
14-Sep-18 11:58 37.790452 -122.336103 340 3498ft 229kts
14-Sep-18 11:59 37.841247 -122.324854 22 5524ft 246kts
14-Sep-18 12:00 37.892885 -122.287441 44 7218ft 276kts
14-Sep-18 12:01 37.936300 -122.230759 46 9214ft 287kts
14-Sep-18 12:02 37.990048 -122.159558 47 11516ft 298kts
14-Sep-18 12:03 38.048533 -122.081865 47 13776ft 314kts
14-Sep-18 12:04 38.103540 -122.008595 48 15735ft 329kts
14-Sep-18 12:05 38.148976 -121.947923 48 17019ft 347kts
14-Sep-18 12:06 38.200677 -121.878682 48 17886ft 381kts
14-Sep-18 12:07 38.257828 -121.802027 48 19043ft 402kts
14-Sep-18 12:08 38.339183 -121.692587 48 19042ft 436kts
14-Sep-18 12:09 38.404653 -121.604375 48 19041ft 436kts
14-Sep-18 12:10 38.486672 -121.496134 46 19042ft 436kts
14-Sep-18 12:11 38.572203 -121.386958 46 19044ft 436kts
14-Sep-18 12:12 38.646710 -121.291618 46 19041ft 436kts
14-Sep-18 12:13 38.712761 -121.206905 46 19042ft 436kts
14-Sep-18 12:14 38.776000 -121.125559 47 19011ft 439kts
14-Sep-18 12:15 38.833488 -121.051391 47 19016ft 439kts
14-Sep-18 12:16 38.908260 -120.954622 47 19017ft 439kts
14-Sep-18 12:17 38.973300 -120.870223 47 18995ft 417kts
14-Sep-18 12:18 39.037131 -120.787061 47 19024ft 437kts
14-Sep-18 12:19 39.103564 -120.700282 47 19019ft 439kts
14-Sep-18 12:20 39.166626 -120.617730 47 18989ft 416kts
14-Sep-18 12:21 39.224169 -120.542181 47 19012ft 410kts
14-Sep-18 12:22 39.285055 -120.461987 47 19013ft 411kts
14-Sep-18 12:23 39.346818 -120.380400 47 17766ft 414kts
14-Sep-18 12:24 39.406104 -120.305584 43 15991ft 380kts
14-Sep-18 12:25 39.463612 -120.239890 43 15977ft 374kts
14-Sep-18 12:26 39.521501 -120.173851 43 15823ft 356kts
14-Sep-18 12:27 39.576458 -120.111089 43 13706ft 347kts
14-Sep-18 12:28 39.643291 -120.034108 43 12438ft 334kts
14-Sep-18 12:29 39.706976 -119.959929 43 11091ft 326kts
14-Sep-18 12:30 39.762693 -119.893662 43 10960ft 303kts
14-Sep-18 12:31 39.808780 -119.838458 50 10955ft 258kts
14-Sep-18 12:32 39.816410 -119.784203 120 10733ft 217kts
14-Sep-18 12:33 39.783279 -119.760329 189 9663ft 199kts
14-Sep-18 12:34 39.740905 -119.766109 186 9002ft 199kts
14-Sep-18 12:35 39.695818 -119.768186 184 8184ft 186kts
14-Sep-18 12:36 39.657650 -119.768662 184 7422ft 163kts
14-Sep-18 12:37 39.625048 -119.768864 183 6774ft 163kts
14-Sep-18 12:38 39.589570 -119.768984 183 6056ft 163kts
14-Sep-18 12:39 39.552200 -119.769088 182 5300ft 161kts
14-Sep-18 12:40 39.522386 -119.769108 182 4683ft 161kts
14-Sep-18 12:41 39.491642 -119.769468 177 4423ft 35kts
14-Sep-18 12:42 39.489276 -119.770286 290 4423ft 0kts
14-Sep-18 12:43 39.489281 -119.771159 283 4423ft 7kts
14-Sep-18 12:44 39.492794 -119.771561 357 4422ft 23kts
14-Sep-18 12:45 39.499304 -119.771520 1 4423ft 21kts
14-Sep-18 12:46 39.503710 -119.772334 279 4422ft 2kts

Navigation Log

Ident Type
Flight plan parsing failed, navigation log unavailable